Aérodrome :
LOGIN :

S'inscrire | Disclaimer

   EN    FR    IT 

 










Légende :    VFR   VFR Marginal   IFR   IFR Intensif   IFR Très Intensif
Visi : 
Plafond : 
>= 8 km
>= 3000ft
5 à 8 km
1000 à 3000 ft
1500m à 5 km
500 à 1000 ft
800 à 1500m
200 à 500 ft
< 800m
< 200 ft
Symboles :   Orages  Brouillard  Fortes neiges  Fortes précipitations  Vent > 20 kt
SIGMETs :   Divers  Orages  Givrage  Turbulence  Onde Orograph.  Cendres Volcan.







- Altitude de l'aérodrome : 187 ft


ETNW - Wunstorf AB

DERNIER METAR :
  • 241420Z 30006KT 9999 FEW040 SCT250 10/M03 Q1024 BLU+

METARs EXPIRÉS :
  • 241320Z 31007KT 9999 FEW020 SCT100 09/01 Q1025 BLU+
  • 241220Z 29003KT 9999 FEW020 BKN110 09/01 Q1025 BLU

TAF TAF ETNW
Valide du 24 à 12h jusqu'au 25 à 12h UTC


241100Z 2412/2512 30005KT 9999 NSW BKN130
BECMG 2501/2503 27012G22KT 9999 NSW SCT008 BKN015
TEMPO 2503/2506 29015G28KT 4000 SHRA SCT005 BKN010CB BY ETGL
Pas de NOTAMs connus pour ce terrain.



MET'MAP, la Météo Aéronautique d'un coup d'oeil ! - Copyright ORBIFLY Décembre 2007 - Disclaimer

ORBIFLY MET'MAP TEAM :

Programmation & Développement : Alexandra Zaïnal
Conception & Développement : Baudouin d'Aumeries
Co-Programmation & Développement : Marc-Olivier Méhu
Soutien technique & logistique : Manuel Goepfert

Contact : metmap@orbifly.com




SOURCES & CREDITS :

   NOAA